Terminal Aerodrome Forecast
Issued by NWS

Home | Current Version | Previous Version | Text Only | Print | Product List | Glossary On
Versions: 1 2 3 4 5 6 7 8 9 10 11 12 13 14
000
FTUS45 KGJT 291732
TAFTEX
TAF
KTEX 291732Z 2918/3018 17011KT P6SM VCTS SCT050CB BKN080
      TEMPO 2918/2920 -TSRA BKN050CB
     FM292000 15007KT P6SM VCTS SCT040CB OVC060
      TEMPO 2920/2924 5SM TSRA BKN040CB OVC060
     FM300000 14006KT P6SM VCTS OVC040CB
      TEMPO 3000/3004 4SM TSRA OVC025CB
     FM301200 VRB03KT P6SM VCSH BKN035=

USA.gov is the U.S. government's official web portal to all federal, state and local government web resources and services.